Time;durP1;ratioP1;P1;durP2;ratioP2;P2;SDS_P1;SDS_P2;PMS_P1;PMS_P2;Temp;Humidity;BMP_temperature;BMP_pressure;BME280_temperature;BME280_humidity;BME280_pressure;Samples;Min_cycle;Max_cycle;Signal;HPM_P1;HPM_P2
2022/01/01 00:00:45;;;;;;;18.95;9.15;;;17.50;78.70;;;;;;2276276;62;30396;-70
2022/01/01 12:18:04;;;;;;;7.78;3.65;;;16.00;83.70;;;;;;2299486;62;30247;-74
2022/01/01 12:20:38;;;;;;;6.20;3.42;;;16.00;84.10;;;;;;2278916;62;30096;-77
2022/01/01 12:23:12;;;;;;;6.78;3.03;;;16.10;86.40;;;;;;2282857;62;30512;-77
2022/01/01 12:25:39;;;;;;;4.85;3.17;;;16.20;87.30;;;;;;2275854;62;30901;-75
2022/01/01 12:28:09;;;;;;;8.63;3.20;;;16.30;89.10;;;;;;2269019;62;30814;-72
2022/01/01 12:30:48;;;;;;;5.80;3.28;;;16.40;89.60;;;;;;2275610;62;30423;-77
2022/01/01 12:33:39;;;;;;;5.07;3.28;;;16.50;88.70;;;;;;2283110;62;30169;-77
2022/01/01 12:36:10;;;;;;;3.35;2.60;;;16.60;88.30;;;;;;2276150;62;31197;-77
2022/01/01 12:38:39;;;;;;;3.63;2.75;;;16.70;89.70;;;;;;2283109;62;30462;-77
2022/01/01 12:41:30;;;;;;;10.35;2.78;;;16.70;89.90;;;;;;2275588;62;30239;-76
2022/01/01 12:43:59;;;;;;;7.07;2.97;;;16.80;89.50;;;;;;2282919;62;30106;-76
2022/01/01 12:46:32;;;;;;;4.70;2.80;;;16.80;89.10;;;;;;2275188;62;31078;-75
2022/01/01 12:48:59;;;;;;;5.60;2.63;;;16.90;88.30;;;;;;2282945;62;30489;-75
2022/01/01 12:51:26;;;;;;;5.28;2.80;;;16.90;88.60;;;;;;2275630;62;30255;-77
2022/01/01 12:54:05;;;;;;;4.85;2.55;;;17.00;88.10;;;;;;2283722;62;30243;-78
2022/01/01 12:56:32;;;;;;;11.60;3.03;;;17.00;86.50;;;;;;2276934;62;30248;-73
2022/01/01 12:58:59;;;;;;;6.20;2.55;;;17.10;87.20;;;;;;2283501;62;31023;-74
2022/01/01 13:01:25;;;;;;;4.90;2.35;;;17.10;86.70;;;;;;2290853;62;30294;-75
2022/01/01 13:03:55;;;;;;;9.65;2.80;;;17.10;86.30;;;;;;2291031;62;30165;-78
2022/01/01 13:06:55;;;;;;;7.05;2.70;;;17.20;86.00;;;;;;2268674;62;31296;-73
2022/01/01 13:09:24;;;;;;;4.22;2.40;;;17.20;84.10;;;;;;2276513;62;30224;-74
2022/01/01 13:11:57;;;;;;;3.25;2.17;;;17.20;85.00;;;;;;2282358;62;30589;-74
2022/01/01 13:14:27;;;;;;;7.20;2.40;;;17.20;84.70;;;;;;2283041;62;30240;-76
2022/01/01 13:16:54;;;;;;;7.43;2.53;;;17.30;84.40;;;;;;2274187;62;30914;-75
2022/01/01 13:19:20;;;;;;;5.32;2.58;;;17.30;84.20;;;;;;2274943;62;30095;-71
2022/01/01 13:21:47;;;;;;;5.90;2.47;;;17.30;84.00;;;;;;2268462;62;30127;-71
2022/01/01 13:24:13;;;;;;;4.20;2.00;;;17.30;83.60;;;;;;2275059;62;30269;-72
2022/01/01 13:26:39;;;;;;;3.08;2.10;;;17.30;83.40;;;;;;2282490;62;30179;-69
2022/01/01 13:29:05;;;;;;;7.80;2.63;;;17.30;83.20;;;;;;2277694;62;30489;-71
2022/01/01 13:31:32;;;;;;;4.07;1.92;;;17.30;82.90;;;;;;2269880;62;30201;-73
2022/01/01 13:33:58;;;;;;;4.28;2.10;;;17.30;82.70;;;;;;2276833;62;30039;-71
2022/01/01 13:36:34;;;;;;;4.30;2.05;;;17.30;82.50;;;;;;2269871;62;31218;-71
2022/01/01 13:39:06;;;;;;;8.30;2.03;;;17.40;82.40;;;;;;2269649;62;30723;-72
2022/01/01 13:41:37;;;;;;;3.63;2.05;;;17.30;82.10;;;;;;2269831;62;30145;-71
2022/01/01 13:44:20;;;;;;;3.35;2.10;;;17.30;81.80;;;;;;2269710;62;30250;-72
2022/01/01 13:46:46;;;;;;;3.13;2.00;;;17.30;81.60;;;;;;2274252;62;30911;-74
2022/01/01 13:49:12;;;;;;;8.57;2.25;;;17.30;82.00;;;;;;2277728;62;30597;-72
2022/01/01 13:51:38;;;;;;;4.30;2.80;;;17.30;82.00;;;;;;2285323;62;30093;-72
2022/01/01 13:54:14;;;;;;;2.38;1.95;;;17.30;81.90;;;;;;2270900;62;30357;-71
2022/01/01 13:56:40;;;;;;;4.47;2.00;;;17.30;81.80;;;;;;2276606;62;30297;-73
2022/01/01 13:59:06;;;;;;;4.47;1.92;;;17.40;81.80;;;;;;2277646;62;31248;-72
2022/01/01 14:01:36;;;;;;;2.25;1.90;;;17.40;81.60;;;;;;2277591;62;30235;-71
2022/01/01 14:04:03;;;;;;;4.57;2.30;;;17.30;81.60;;;;;;2277886;62;29993;-71
2022/01/01 14:06:29;;;;;;;4.93;2.25;;;17.40;81.70;;;;;;2277546;62;31242;-77
2022/01/01 14:09:05;;;;;;;4.55;2.28;;;17.40;81.60;;;;;;2284799;62;30646;-71
2022/01/01 14:11:37;;;;;;;4.10;1.77;;;17.40;81.50;;;;;;2284889;62;30113;-71
2022/01/01 14:14:12;;;;;;;2.42;1.95;;;17.40;81.40;;;;;;2277236;62;30227;-71
2022/01/01 14:16:46;;;;;;;13.63;2.50;;;17.50;81.30;;;;;;2277194;62;30205;-73
2022/01/01 14:19:21;;;;;;;3.88;2.28;;;17.40;81.10;;;;;;2276933;62;30196;-73
2022/01/01 14:21:50;;;;;;;4.32;2.03;;;17.40;81.10;;;;;;2277726;62;30365;-73
2022/01/01 14:24:18;;;;;;;5.47;2.40;;;17.40;81.10;;;;;;2270881;62;30141;-73
2022/01/01 14:26:51;;;;;;;3.80;2.30;;;17.40;81.20;;;;;;2277681;62;30842;-72
2022/01/01 14:29:18;;;;;;;2.95;2.00;;;17.30;81.00;;;;;;2284829;62;30514;-73
2022/01/01 14:31:45;;;;;;;7.38;2.30;;;17.30;81.10;;;;;;2284519;62;30349;-75
2022/01/01 14:34:15;;;;;;;5.05;2.25;;;17.30;81.20;;;;;;2277388;62;30455;-72
2022/01/01 14:36:46;;;;;;;4.72;2.40;;;17.30;81.20;;;;;;2280756;62;30832;-72
2022/01/01 14:39:12;;;;;;;3.15;2.15;;;17.30;81.10;;;;;;2269144;62;30580;-72
2022/01/01 14:41:38;;;;;;;2.38;1.95;;;17.20;81.00;;;;;;2269421;62;30565;-72
2022/01/01 14:44:04;;;;;;;5.25;2.05;;;17.20;81.00;;;;;;2262513;62;30663;-72
2022/01/01 14:46:31;;;;;;;2.75;2.10;;;17.20;81.10;;;;;;2276528;62;30725;-72
2022/01/01 14:49:12;;;;;;;5.20;1.95;;;17.20;81.00;;;;;;2276593;62;30267;-72
2022/01/01 14:51:45;;;;;;;3.28;2.80;;;17.10;81.60;;;;;;2275990;62;30143;-72
2022/01/01 14:54:33;;;;;;;5.55;2.30;;;17.10;81.00;;;;;;2268883;62;30072;-72
2022/01/01 14:57:18;;;;;;;2.95;1.95;;;17.10;80.80;;;;;;2262679;62;30892;-72
2022/01/01 14:59:45;;;;;;;2.47;2.08;;;17.10;80.80;;;;;;2276784;62;30232;-72
2022/01/01 15:02:11;;;;;;;2.42;1.90;;;17.10;81.10;;;;;;2276737;62;30050;-72
2022/01/01 15:04:37;;;;;;;2.95;2.25;;;17.00;81.00;;;;;;2269176;62;30071;-72
2022/01/01 15:07:03;;;;;;;3.22;1.85;;;17.00;81.00;;;;;;2276742;62;31230;-72
2022/01/01 15:09:32;;;;;;;3.72;1.95;;;17.00;81.10;;;;;;2269368;62;30585;-72
2022/01/01 15:11:59;;;;;;;2.78;1.83;;;17.00;81.10;;;;;;2269178;62;30246;-72
2022/01/01 15:14:25;;;;;;;4.80;2.20;;;17.00;81.10;;;;;;2269349;62;30278;-72
2022/01/01 15:16:56;;;;;;;3.95;2.10;;;16.90;81.10;;;;;;2269194;62;31063;-72
2022/01/01 15:19:25;;;;;;;2.80;2.00;;;16.90;81.10;;;;;;2269081;62;30562;-72
2022/01/01 15:22:17;;;;;;;2.47;2.08;;;16.90;81.00;;;;;;2269466;62;30069;-72
2022/01/01 15:24:45;;;;;;;4.25;2.22;;;16.90;81.00;;;;;;2276452;62;30126;-72
2022/01/01 15:27:11;;;;;;;2.20;1.90;;;16.80;81.10;;;;;;2269205;62;30099;-72
2022/01/01 15:29:48;;;;;;;1.90;1.80;;;16.90;81.10;;;;;;2276595;62;30233;-72
2022/01/01 15:37:31;;;;;;;2.65;1.90;;;16.80;81.10;;;;;;2276561;62;30873;-72
2022/01/01 15:40:04;;;;;;;2.05;1.80;;;16.80;81.20;;;;;;2276470;62;30530;-72
2022/01/01 15:42:29;;;;;;;1.95;1.80;;;16.80;81.10;;;;;;2269757;62;30114;-72
2022/01/01 15:44:55;;;;;;;1.92;1.75;;;16.80;81.10;;;;;;2276699;62;30156;-72
2022/01/01 15:47:21;;;;;;;2.10;1.70;;;16.80;81.20;;;;;;2276440;62;30324;-73
2022/01/01 15:49:47;;;;;;;1.98;1.77;;;16.80;81.20;;;;;;2272574;62;30361;-73
2022/01/01 15:52:19;;;;;;;2.75;1.80;;;16.70;81.20;;;;;;2286689;62;30286;-72
2022/01/01 15:54:48;;;;;;;2.25;1.95;;;16.70;81.20;;;;;;2277631;62;30179;-72
2022/01/01 15:57:28;;;;;;;2.03;1.50;;;16.70;81.30;;;;;;2277281;62;30221;-72
2022/01/01 16:00:12;;;;;;;1.90;1.80;;;16.70;81.30;;;;;;2283890;62;30362;-72
2022/01/01 16:03:11;;;;;;;2.10;1.90;;;16.70;81.30;;;;;;2276450;62;30214;-72
2022/01/01 16:05:58;;;;;;;1.92;1.70;;;16.70;81.30;;;;;;2270327;62;30410;-72
2022/01/01 16:08:26;;;;;;;2.08;1.75;;;16.70;81.40;;;;;;2269934;62;30856;-72
2022/01/01 16:10:53;;;;;;;2.40;2.20;;;16.70;81.40;;;;;;2276271;62;30839;-72
2022/01/01 16:13:27;;;;;;;1.80;1.70;;;16.70;81.40;;;;;;2269273;62;30502;-72
2022/01/01 16:16:03;;;;;;;2.20;2.00;;;16.70;81.40;;;;;;2262553;62;30020;-73
2022/01/01 16:18:50;;;;;;;3.58;2.08;;;16.70;81.40;;;;;;2279988;62;30334;-72
2022/01/01 16:21:21;;;;;;;4.38;2.00;;;16.60;81.40;;;;;;2275948;62;30531;-71
2022/01/01 16:23:49;;;;;;;2.00;1.80;;;16.70;81.50;;;;;;2270280;62;30123;-72
2022/01/01 16:26:16;;;;;;;3.47;1.70;;;16.70;81.50;;;;;;2282232;62;30102;-73
2022/01/01 16:28:43;;;;;;;3.75;1.95;;;16.70;81.50;;;;;;2282957;62;30301;-74
2022/01/01 16:31:09;;;;;;;3.20;2.00;;;16.70;81.50;;;;;;2275638;62;30534;-72
2022/01/01 16:33:40;;;;;;;4.00;2.38;;;16.80;81.60;;;;;;2275864;62;30333;-72
2022/01/01 16:36:06;;;;;;;4.35;2.13;;;16.80;81.50;;;;;;2273859;62;30228;-72
2022/01/01 16:38:33;;;;;;;1.98;1.85;;;16.80;81.50;;;;;;2275522;62;30099;-71
2022/01/01 16:41:03;;;;;;;4.32;1.80;;;16.80;81.50;;;;;;2270772;62;30290;-71
2022/01/01 16:43:32;;;;;;;9.77;2.08;;;16.70;81.50;;;;;;2267529;62;30438;-71
2022/01/01 16:46:01;;;;;;;3.13;2.15;;;16.80;81.60;;;;;;2270185;62;30362;-71
2022/01/01 16:49:21;;;;;;;2.67;2.13;;;16.80;81.50;;;;;;2272845;62;30915;-71
2022/01/01 16:51:49;;;;;;;2.58;1.85;;;16.70;81.50;;;;;;2273962;62;30364;-72
2022/01/01 16:54:16;;;;;;;3.05;2.00;;;16.80;81.60;;;;;;2267809;62;30227;-72
2022/01/01 16:56:46;;;;;;;2.38;1.95;;;16.80;81.60;;;;;;2274569;62;30132;-71
2022/01/01 16:59:13;;;;;;;2.03;1.92;;;16.80;81.60;;;;;;2268855;62;30842;-72
2022/01/01 17:01:41;;;;;;;3.13;1.88;;;16.80;81.60;;;;;;2272756;62;30813;-72
2022/01/01 17:04:13;;;;;;;2.10;1.83;;;16.80;81.60;;;;;;2276875;62;30182;-71
2022/01/01 17:06:45;;;;;;;2.78;1.90;;;16.80;81.60;;;;;;2277173;62;30196;-72
2022/01/01 17:09:17;;;;;;;2.53;1.88;;;16.80;81.60;;;;;;2270754;62;30275;-72
2022/01/01 17:11:43;;;;;;;2.42;1.65;;;16.80;81.60;;;;;;2270558;62;30408;-71
2022/01/01 17:14:10;;;;;;;2.72;2.08;;;16.80;81.60;;;;;;2284299;62;30212;-71
2022/01/01 17:16:46;;;;;;;3.85;1.80;;;16.80;81.60;;;;;;2284008;62;30257;-71
2022/01/01 17:19:21;;;;;;;2.00;1.60;;;16.80;81.60;;;;;;2276948;62;30194;-71
2022/01/01 17:22:33;;;;;;;2.97;2.00;;;16.80;81.60;;;;;;2281521;62;30529;-70
2022/01/01 17:25:09;;;;;;;5.68;1.75;;;16.80;81.50;;;;;;2276592;62;30115;-70
2022/01/01 17:27:41;;;;;;;2.55;1.83;;;16.80;81.60;;;;;;2275411;62;30418;-70
2022/01/01 17:30:07;;;;;;;;;;;16.80;81.60;;;;;;2276864;62;30195;-73
2022/01/01 17:32:33;;;;;;;1.67;1.52;;;16.80;81.50;;;;;;2278367;62;30176;-74
2022/01/01 17:37:51;;;;;;;2.40;1.90;;;16.80;81.60;;;;;;2263603;62;30290;-72
2022/01/01 17:40:20;;;;;;;2.28;1.80;;;16.80;81.70;;;;;;2269500;62;30091;-70
2022/01/01 17:42:46;;;;;;;3.13;1.60;;;16.80;81.70;;;;;;2277772;62;30505;-71
2022/01/01 17:45:14;;;;;;;4.50;2.03;;;16.80;81.60;;;;;;2275899;62;30259;-71
2022/01/01 17:47:40;;;;;;;3.58;2.40;;;16.80;81.60;;;;;;2276505;62;30065;-71
2022/01/01 17:52:40;;;;;;;3.03;2.58;;;16.90;81.60;;;;;;2283012;62;30613;-71
2022/01/01 17:55:09;;;;;;;;;;;16.90;81.60;;;;;;2276651;62;30163;-71
2022/01/01 17:57:35;;;;;;;2.78;2.20;;;16.90;81.40;;;;;;2276624;62;30438;-71
2022/01/01 18:00:02;;;;;;;3.60;2.60;;;16.80;81.50;;;;;;2273088;62;31195;-71
2022/01/01 18:02:28;;;;;;;2.72;2.30;;;16.80;81.60;;;;;;2283064;62;30925;-72
2022/01/01 18:04:58;;;;;;;4.68;2.80;;;16.80;81.60;;;;;;2269759;62;30244;-72
2022/01/01 18:07:31;;;;;;;4.22;3.08;;;16.90;81.80;;;;;;2279237;62;31042;-72
2022/01/01 18:10:07;;;;;;;5.90;3.53;;;16.90;81.90;;;;;;2275843;62;30006;-71
2022/01/01 18:12:55;;;;;;;3.33;3.03;;;16.90;82.20;;;;;;2276621;62;30390;-71
2022/01/01 18:15:20;;;;;;;6.00;3.22;;;16.90;82.70;;;;;;2275708;62;30346;-72
2022/01/01 18:17:48;;;;;;;4.38;3.00;;;16.90;82.50;;;;;;2276183;62;30237;-71
2022/01/01 18:20:21;;;;;;;4.35;3.28;;;17.00;82.70;;;;;;2284004;62;30066;-71
2022/01/01 18:22:50;;;;;;;4.30;3.55;;;17.00;82.50;;;;;;2276639;62;30320;-72
2022/01/01 18:25:28;;;;;;;6.65;3.72;;;17.00;82.50;;;;;;2269972;62;30176;-71
2022/01/01 18:28:16;;;;;;;5.43;3.53;;;17.00;82.70;;;;;;2283090;62;30227;-69
2022/01/01 18:30:42;;;;;;;3.53;3.22;;;17.00;83.00;;;;;;2276481;62;30216;-69
2022/01/01 18:33:11;;;;;;;7.30;3.47;;;17.00;83.00;;;;;;2283557;62;30472;-69
2022/01/01 18:35:37;;;;;;;4.97;3.85;;;17.00;82.90;;;;;;2269287;62;30219;-69
2022/01/01 18:38:03;;;;;;;4.15;3.42;;;17.00;83.00;;;;;;2275810;62;30170;-69
2022/01/01 18:40:28;;;;;;;5.20;3.45;;;17.00;83.00;;;;;;2283607;62;30434;-69
2022/01/01 18:42:54;;;;;;;4.10;3.60;;;17.10;83.20;;;;;;2283416;62;30430;-68
2022/01/01 18:45:21;;;;;;;3.53;3.22;;;17.10;83.10;;;;;;2283429;62;30046;-69
2022/01/01 18:47:46;;;;;;;3.25;2.88;;;17.10;83.10;;;;;;2283613;62;30054;-69
2022/01/01 18:50:12;;;;;;;3.70;3.40;;;17.10;83.00;;;;;;2283483;62;30275;-69
2022/01/01 18:52:47;;;;;;;5.25;3.22;;;17.20;83.00;;;;;;2276309;62;30370;-69
2022/01/01 18:55:20;;;;;;;3.42;3.13;;;17.20;83.10;;;;;;2283000;62;30265;-69
2022/01/01 18:58:02;;;;;;;4.88;3.38;;;17.30;83.00;;;;;;2283332;62;30332;-69
2022/01/01 19:00:31;;;;;;;3.33;3.05;;;17.30;82.90;;;;;;2275974;62;30336;-71
2022/01/01 19:02:57;;;;;;;6.70;2.47;;;17.40;82.90;;;;;;2282998;62;32204;-71
2022/01/01 19:05:25;;;;;;;3.63;2.65;;;17.40;82.80;;;;;;2275265;62;30283;-70
2022/01/01 19:07:57;;;;;;;6.70;3.40;;;17.40;82.60;;;;;;2263267;62;30502;-71
2022/01/01 19:10:23;;;;;;;4.55;3.67;;;17.40;82.50;;;;;;2269584;62;30992;-71
2022/01/01 19:12:57;;;;;;;5.05;3.35;;;17.40;82.50;;;;;;2269216;62;30847;-72
2022/01/01 19:15:23;;;;;;;3.40;3.10;;;17.40;82.40;;;;;;2283255;62;30301;-72
2022/01/01 19:17:49;;;;;;;3.80;3.42;;;17.40;82.40;;;;;;2273286;62;30351;-71
2022/01/01 19:20:16;;;;;;;5.63;3.78;;;17.50;82.40;;;;;;2274487;62;30185;-70
2022/01/01 19:22:45;;;;;;;4.57;3.33;;;17.50;82.40;;;;;;2274953;62;30522;-70
2022/01/01 19:25:20;;;;;;;4.90;3.40;;;17.50;82.30;;;;;;2273478;62;30176;-70
2022/01/01 19:27:49;;;;;;;3.53;2.92;;;17.50;82.20;;;;;;2267280;62;30294;-71
2022/01/01 19:30:16;;;;;;;4.18;3.05;;;17.50;82.20;;;;;;2274976;62;30106;-70
2022/01/01 19:32:46;;;;;;;3.50;2.90;;;17.50;82.10;;;;;;2274325;62;30895;-70
2022/01/01 19:35:12;;;;;;;5.07;3.80;;;17.60;82.10;;;;;;2274064;62;30255;-71
2022/01/01 19:37:38;;;;;;;5.10;4.40;;;17.50;81.90;;;;;;2269943;62;30541;-71
2022/01/01 19:40:04;;;;;;;6.82;4.57;;;17.50;81.90;;;;;;2266645;62;30846;-71
2022/01/01 19:42:31;;;;;;;6.65;4.03;;;17.50;82.00;;;;;;2265830;62;30254;-70
2022/01/01 19:45:00;;;;;;;5.60;3.88;;;17.50;82.00;;;;;;2265987;62;30235;-71
2022/01/01 19:47:28;;;;;;;4.05;2.97;;;17.50;82.00;;;;;;2259621;62;30935;-70
2022/01/01 19:50:14;;;;;;;4.93;3.38;;;17.50;82.00;;;;;;2266651;62;30989;-71
2022/01/01 19:52:41;;;;;;;4.78;3.10;;;17.60;81.90;;;;;;2266121;62;30421;-75
2022/01/01 19:55:07;;;;;;;3.47;2.88;;;17.60;81.90;;;;;;2266442;62;30369;-69
2022/01/01 19:57:38;;;;;;;3.03;2.63;;;17.60;81.60;;;;;;2266350;62;30371;-71
2022/01/01 20:00:05;;;;;;;4.35;2.58;;;17.60;81.60;;;;;;2266911;62;30853;-71
2022/01/01 20:02:31;;;;;;;2.70;2.47;;;17.60;81.20;;;;;;2266335;62;30195;-73
2022/01/01 20:04:57;;;;;;;2.45;2.22;;;17.70;81.20;;;;;;2266864;62;30154;-72
2022/01/01 20:07:23;;;;;;;2.50;1.88;;;17.70;81.20;;;;;;2266671;62;30250;-72
2022/01/01 20:09:49;;;;;;;2.60;2.22;;;17.70;81.10;;;;;;2266994;62;30788;-71
2022/01/01 20:12:14;;;;;;;2.53;2.28;;;17.70;81.00;;;;;;2274962;62;30251;-72
2022/01/01 20:14:40;;;;;;;2.45;2.10;;;17.70;81.00;;;;;;2274594;62;30454;-71
2022/01/01 20:17:09;;;;;;;4.93;2.30;;;17.70;81.00;;;;;;2264714;62;30236;-72
2022/01/01 20:19:36;;;;;;;2.35;1.90;;;17.70;81.10;;;;;;2266442;62;32141;-72
2022/01/01 20:22:06;;;;;;;3.10;2.10;;;17.70;81.10;;;;;;2266207;62;30472;-72
2022/01/01 20:24:32;;;;;;;3.17;2.10;;;17.70;81.10;;;;;;2266178;62;30093;-72
2022/01/01 20:26:58;;;;;;;1.83;1.70;;;17.80;81.10;;;;;;2265682;62;30433;-73
2022/01/01 20:29:26;;;;;;;2.33;2.08;;;17.80;81.10;;;;;;2266206;62;31060;-73
2022/01/01 20:31:51;;;;;;;2.35;2.05;;;17.80;81.10;;;;;;2266058;62;30641;-73
2022/01/01 20:34:17;;;;;;;2.75;2.20;;;17.80;81.10;;;;;;2265055;62;30521;-73
2022/01/01 20:36:43;;;;;;;1.85;1.75;;;17.80;81.10;;;;;;2263864;62;30295;-73
2022/01/01 20:39:13;;;;;;;1.80;1.70;;;17.90;81.10;;;;;;2267322;62;30867;-73
2022/01/01 20:41:38;;;;;;;1.88;1.77;;;17.80;81.00;;;;;;2267199;62;31468;-73
2022/01/01 20:44:04;;;;;;;2.00;1.85;;;17.90;81.10;;;;;;2268028;62;30193;-73
2022/01/01 20:46:30;;;;;;;2.13;1.98;;;17.90;81.10;;;;;;2267417;62;30559;-73
2022/01/01 20:48:56;;;;;;;1.92;1.60;;;17.90;81.00;;;;;;2260673;62;31910;-74
2022/01/01 20:51:23;;;;;;;1.63;1.52;;;17.90;80.90;;;;;;2259868;62;30611;-73
2022/01/01 20:53:49;;;;;;;2.00;1.80;;;17.80;80.90;;;;;;2259197;63;30240;-73
2022/01/01 20:56:14;;;;;;;1.80;1.70;;;17.80;80.90;;;;;;2265393;62;30139;-73
2022/01/01 20:58:40;;;;;;;2.50;1.70;;;17.90;80.90;;;;;;2267367;62;30810;-73
2022/01/01 21:01:06;;;;;;;1.60;1.50;;;17.90;80.90;;;;;;2267880;62;30716;-73
2022/01/01 21:03:32;;;;;;;2.30;1.70;;;17.90;80.80;;;;;;2267521;62;30247;-73
2022/01/01 21:06:08;;;;;;;2.00;1.88;;;17.90;80.70;;;;;;2267425;62;30415;-72
2022/01/01 21:08:35;;;;;;;1.92;1.50;;;17.90;81.50;;;;;;2268174;62;30945;-72
2022/01/01 21:11:01;;;;;;;1.60;1.50;;;17.90;80.70;;;;;;2267455;62;30278;-72
2022/01/01 21:13:27;;;;;;;1.60;1.42;;;17.90;80.60;;;;;;2267814;62;30109;-72
2022/01/01 21:15:53;;;;;;;1.50;1.40;;;17.90;80.60;;;;;;2263653;62;30799;-73
2022/01/01 21:18:19;;;;;;;1.73;1.63;;;17.90;80.60;;;;;;2279705;62;31120;-73
2022/01/01 21:20:45;;;;;;;1.83;1.70;;;17.90;80.60;;;;;;2284043;62;30222;-72
2022/01/01 21:23:13;;;;;;;1.65;1.55;;;17.90;80.50;;;;;;2284118;62;30132;-71
2022/01/01 21:25:40;;;;;;;1.60;1.50;;;17.90;80.50;;;;;;2276706;62;30226;-72
2022/01/01 21:28:05;;;;;;;3.42;1.60;;;17.90;80.40;;;;;;2283949;62;30163;-72
2022/01/01 21:30:33;;;;;;;1.83;1.55;;;17.90;80.40;;;;;;2276437;62;30775;-72
2022/01/01 21:33:00;;;;;;;1.67;1.40;;;17.90;80.40;;;;;;2284015;62;30157;-71
2022/01/01 21:35:26;;;;;;;1.67;1.50;;;17.90;80.30;;;;;;2275027;62;30558;-71
2022/01/01 21:37:52;;;;;;;2.10;1.80;;;17.90;80.20;;;;;;2277785;62;30273;-70
2022/01/01 21:40:18;;;;;;;1.60;1.50;;;17.90;80.30;;;;;;2276643;62;30636;-71
2022/01/01 21:42:44;;;;;;;1.98;1.55;;;17.90;80.30;;;;;;2284069;62;30189;-71
2022/01/01 21:45:10;;;;;;;1.50;1.40;;;17.90;80.20;;;;;;2276535;62;30038;-71
2022/01/01 21:47:36;;;;;;;1.60;1.50;;;17.90;80.20;;;;;;2276642;62;30086;-71
2022/01/01 21:50:02;;;;;;;1.40;1.30;;;17.90;80.20;;;;;;2283554;62;30495;-71
2022/01/01 21:52:28;;;;;;;2.25;1.40;;;17.90;80.10;;;;;;2282316;62;30105;-72
2022/01/01 21:54:54;;;;;;;1.40;1.40;;;18.00;80.20;;;;;;2284223;62;30097;-72
2022/01/01 21:57:20;;;;;;;1.35;1.27;;;18.00;80.10;;;;;;2282039;62;31698;-71
2022/01/01 21:59:46;;;;;;;1.60;1.50;;;17.90;80.00;;;;;;2284131;62;30657;-72
2022/01/01 22:02:11;;;;;;;2.58;1.67;;;17.90;80.10;;;;;;2284037;62;30325;-73
2022/01/01 22:04:38;;;;;;;1.20;1.15;;;17.90;80.10;;;;;;2276755;62;30899;-72
2022/01/01 22:07:04;;;;;;;1.17;1.10;;;17.90;80.00;;;;;;2276452;62;30346;-72
2022/01/01 22:09:30;;;;;;;1.35;1.27;;;17.90;80.00;;;;;;2283988;62;30233;-72
2022/01/01 22:11:59;;;;;;;1.55;1.45;;;17.90;80.00;;;;;;2276737;62;30150;-72
2022/01/01 22:14:25;;;;;;;1.50;1.40;;;18.00;80.00;;;;;;2283182;62;30319;-72
2022/01/01 22:16:51;;;;;;;1.30;1.23;;;18.00;80.00;;;;;;2276603;62;30506;-72
2022/01/01 22:19:21;;;;;;;1.52;1.42;;;18.00;79.90;;;;;;2282886;62;31850;-72
2022/01/01 22:21:47;;;;;;;1.23;1.20;;;18.00;79.80;;;;;;2283365;62;30196;-73
2022/01/01 22:24:12;;;;;;;1.65;1.20;;;17.90;79.90;;;;;;2283958;62;30237;-71
2022/01/01 22:26:38;;;;;;;1.25;1.25;;;17.90;79.90;;;;;;2283808;62;30056;-72
2022/01/01 22:29:04;;;;;;;2.17;1.45;;;18.00;79.90;;;;;;2275966;62;30183;-73
2022/01/01 22:31:31;;;;;;;1.90;1.50;;;18.00;79.90;;;;;;2276576;62;30248;-73
2022/01/01 22:33:57;;;;;;;1.42;1.33;;;18.00;79.80;;;;;;2283692;62;30380;-72
2022/01/01 22:36:23;;;;;;;1.70;1.60;;;18.00;79.80;;;;;;2283183;62;30570;-73
2022/01/01 22:38:49;;;;;;;1.92;1.48;;;18.00;79.70;;;;;;2283795;62;30381;-73
2022/01/01 22:41:15;;;;;;;1.63;1.52;;;17.90;79.70;;;;;;2283658;62;30289;-73
2022/01/01 22:43:41;;;;;;;1.58;1.30;;;17.90;79.70;;;;;;2276418;62;30417;-73
2022/01/01 22:46:07;;;;;;;1.58;1.48;;;17.90;79.80;;;;;;2283644;62;30211;-72
2022/01/01 22:48:33;;;;;;;1.38;1.35;;;17.90;79.80;;;;;;2269644;62;30613;-72
2022/01/01 22:50:59;;;;;;;1.50;1.48;;;17.90;79.80;;;;;;2278987;62;30169;-71
2022/01/01 22:53:26;;;;;;;1.48;1.40;;;17.90;79.70;;;;;;2283831;62;30175;-71
2022/01/01 22:55:53;;;;;;;1.83;1.40;;;18.00;79.80;;;;;;2269427;62;30240;-71
2022/01/01 22:58:20;;;;;;;1.50;1.40;;;17.90;79.70;;;;;;2276310;62;30639;-71
2022/01/01 23:00:50;;;;;;;1.40;1.30;;;17.90;79.70;;;;;;2275765;62;30212;-72
2022/01/01 23:03:16;;;;;;;1.60;1.50;;;17.90;79.60;;;;;;2283433;62;30132;-71
2022/01/01 23:05:41;;;;;;;1.70;1.60;;;17.90;79.70;;;;;;2276199;62;30294;-71
2022/01/01 23:08:08;;;;;;;1.60;1.50;;;17.90;79.70;;;;;;2276181;62;30398;-71
2022/01/01 23:10:40;;;;;;;1.35;1.30;;;17.90;79.70;;;;;;2276230;62;30289;-72
2022/01/01 23:13:06;;;;;;;1.35;1.25;;;17.90;79.70;;;;;;2283259;62;30481;-71
2022/01/01 23:15:36;;;;;;;1.70;1.60;;;17.90;79.70;;;;;;2276110;62;30161;-71
2022/01/01 23:20:39;;;;;;;2.67;1.80;;;17.90;79.60;;;;;;2283259;62;30318;-72
2022/01/01 23:23:06;;;;;;;1.65;1.48;;;17.90;79.60;;;;;;2269932;62;30609;-71
2022/01/01 23:25:48;;;;;;;1.48;1.17;;;17.90;79.70;;;;;;2282312;62;30939;-72
2022/01/01 23:28:17;;;;;;;1.40;1.30;;;17.90;79.70;;;;;;2277094;62;30337;-72
2022/01/01 23:30:49;;;;;;;1.33;1.23;;;17.90;79.70;;;;;;2261186;62;30290;-72
2022/01/01 23:33:18;;;;;;;1.42;1.33;;;17.90;79.60;;;;;;2275200;62;30408;-73
2022/01/01 23:35:49;;;;;;;1.63;1.50;;;18.00;79.70;;;;;;2280913;62;30858;-73
2022/01/01 23:38:15;;;;;;;1.40;1.30;;;17.90;79.50;;;;;;2275732;62;30739;-72
2022/01/01 23:40:42;;;;;;;1.52;1.23;;;17.90;79.50;;;;;;2282151;62;30263;-73
2022/01/01 23:43:08;;;;;;;1.40;1.30;;;17.90;79.60;;;;;;2267842;62;30142;-73
2022/01/01 23:45:41;;;;;;;1.42;1.33;;;17.90;79.60;;;;;;2283333;62;30979;-73
2022/01/01 23:48:07;;;;;;;1.30;1.30;;;17.90;79.60;;;;;;2276549;62;30388;-71
2022/01/01 23:50:40;;;;;;;1.50;1.40;;;17.90;79.60;;;;;;2283579;62;30156;-72
2022/01/01 23:53:10;;;;;;;1.60;1.50;;;17.90;79.60;;;;;;2276027;62;30166;-70
2022/01/01 23:55:36;;;;;;;1.23;1.23;;;17.90;79.50;;;;;;2269150;62;30077;-70
2022/01/01 23:58:04;;;;;;;1.30;1.20;;;17.90;79.50;;;;;;2275441;62;30384;-70
